sensor_id;sensor_type;location;lat;lon;timestamp;temperature;humidity
22738;DHT22;11536;50.860;4.286;2022-10-16T00:00:57;15.50;99.90
22738;DHT22;11536;50.860;4.286;2022-10-16T00:03:23;15.50;99.90
22738;DHT22;11536;50.860;4.286;2022-10-16T00:05:49;15.50;99.90
22738;DHT22;11536;50.860;4.286;2022-10-16T00:08:14;15.50;99.90
22738;DHT22;11536;50.860;4.286;2022-10-16T00:10:40;15.60;99.90
22738;DHT22;11536;50.860;4.286;2022-10-16T00:13:07;15.50;99.90
22738;DHT22;11536;50.860;4.286;2022-10-16T00:15:34;15.50;99.90
22738;DHT22;11536;50.860;4.286;2022-10-16T00:18:02;15.70;99.90
22738;DHT22;11536;50.860;4.286;2022-10-16T00:20:28;15.40;99.90
22738;DHT22;11536;50.860;4.286;2022-10-16T00:22:53;15.50;99.90
22738;DHT22;11536;50.860;4.286;2022-10-16T00:25:19;15.50;99.90
22738;DHT22;11536;50.860;4.286;2022-10-16T00:27:44;15.50;99.90
22738;DHT22;11536;50.860;4.286;2022-10-16T00:30:10;15.50;99.90
22738;DHT22;11536;50.860;4.286;2022-10-16T00:32:36;15.40;99.90
22738;DHT22;11536;50.860;4.286;2022-10-16T00:35:01;15.40;99.90
22738;DHT22;11536;50.860;4.286;2022-10-16T00:37:29;15.40;99.90
22738;DHT22;11536;50.860;4.286;2022-10-16T00:39:54;15.40;99.90
22738;DHT22;11536;50.860;4.286;2022-10-16T00:42:20;15.40;99.90
22738;DHT22;11536;50.860;4.286;2022-10-16T00:44:54;15.40;99.90
22738;DHT22;11536;50.860;4.286;2022-10-16T00:47:29;15.40;99.90
22738;DHT22;11536;50.860;4.286;2022-10-16T00:50:00;15.40;99.90
22738;DHT22;11536;50.860;4.286;2022-10-16T00:52:27;15.40;99.90
22738;DHT22;11536;50.860;4.286;2022-10-16T00:54:54;15.40;99.90
22738;DHT22;11536;50.860;4.286;2022-10-16T00:57:20;15.50;99.90
22738;DHT22;11536;50.860;4.286;2022-10-16T00:59:46;15.30;99.90
22738;DHT22;11536;50.860;4.286;2022-10-16T01:02:14;15.30;99.90
22738;DHT22;11536;50.860;4.286;2022-10-16T01:04:47;15.30;99.90
22738;DHT22;11536;50.860;4.286;2022-10-16T01:19:09;15.20;99.90
22738;DHT22;11536;50.860;4.286;2022-10-16T01:21:04;15.20;99.90
22738;DHT22;11536;50.860;4.286;2022-10-16T01:23:50;15.20;99.90
22738;DHT22;11536;50.860;4.286;2022-10-16T01:29:07;15.20;99.90
22738;DHT22;11536;50.860;4.286;2022-10-16T01:31:37;15.20;99.90
22738;DHT22;11536;50.860;4.286;2022-10-16T01:36:51;15.20;99.90
22738;DHT22;11536;50.860;4.286;2022-10-16T01:39:21;15.20;99.90
22738;DHT22;11536;50.860;4.286;2022-10-16T01:42:11;15.20;99.90
22738;DHT22;11536;50.860;4.286;2022-10-16T01:44:38;15.20;99.90
22738;DHT22;11536;50.860;4.286;2022-10-16T01:47:06;15.10;99.90
22738;DHT22;11536;50.860;4.286;2022-10-16T01:49:36;15.10;99.90
22738;DHT22;11536;50.860;4.286;2022-10-16T01:52:05;15.10;99.90
22738;DHT22;11536;50.860;4.286;2022-10-16T01:54:33;15.10;99.90
22738;DHT22;11536;50.860;4.286;2022-10-16T01:57:00;15.20;99.90
22738;DHT22;11536;50.860;4.286;2022-10-16T01:59:30;15.20;99.90
22738;DHT22;11536;50.860;4.286;2022-10-16T02:02:00;15.10;99.90
22738;DHT22;11536;50.860;4.286;2022-10-16T02:04:27;15.20;99.90
22738;DHT22;11536;50.860;4.286;2022-10-16T02:06:54;15.10;99.90
22738;DHT22;11536;50.860;4.286;2022-10-16T02:09:20;15.10;99.90
22738;DHT22;11536;50.860;4.286;2022-10-16T02:11:45;15.10;99.90
22738;DHT22;11536;50.860;4.286;2022-10-16T02:14:11;15.10;99.90
22738;DHT22;11536;50.860;4.286;2022-10-16T02:16:42;15.10;99.90
22738;DHT22;11536;50.860;4.286;2022-10-16T02:19:08;15.10;99.90
22738;DHT22;11536;50.860;4.286;2022-10-16T02:21:45;15.10;99.90
22738;DHT22;11536;50.860;4.286;2022-10-16T02:24:26;15.10;99.90
22738;DHT22;11536;50.860;4.286;2022-10-16T02:27:24;15.10;99.90
22738;DHT22;11536;50.860;4.286;2022-10-16T02:30:02;15.00;99.90
22738;DHT22;11536;50.860;4.286;2022-10-16T02:32:33;15.00;99.90
22738;DHT22;11536;50.860;4.286;2022-10-16T02:35:00;15.00;99.90
22738;DHT22;11536;50.860;4.286;2022-10-16T02:37:27;15.00;99.90
22738;DHT22;11536;50.860;4.286;2022-10-16T02:39:55;15.00;99.90
22738;DHT22;11536;50.860;4.286;2022-10-16T02:42:21;15.00;99.90
22738;DHT22;11536;50.860;4.286;2022-10-16T02:44:52;15.00;99.90
22738;DHT22;11536;50.860;4.286;2022-10-16T02:47:18;14.90;99.90
22738;DHT22;11536;50.860;4.286;2022-10-16T02:49:43;14.90;99.90
22738;DHT22;11536;50.860;4.286;2022-10-16T02:52:09;14.90;99.90
22738;DHT22;11536;50.860;4.286;2022-10-16T02:54:34;14.90;99.90
22738;DHT22;11536;50.860;4.286;2022-10-16T02:57:00;14.90;99.90
22738;DHT22;11536;50.860;4.286;2022-10-16T02:59:25;15.00;99.90
22738;DHT22;11536;50.860;4.286;2022-10-16T03:01:51;14.90;99.90
22738;DHT22;11536;50.860;4.286;2022-10-16T03:04:16;14.90;99.90
22738;DHT22;11536;50.860;4.286;2022-10-16T03:06:42;14.90;99.90
22738;DHT22;11536;50.860;4.286;2022-10-16T03:09:08;15.00;99.90
22738;DHT22;11536;50.860;4.286;2022-10-16T03:11:33;14.90;99.90
22738;DHT22;11536;50.860;4.286;2022-10-16T03:13:59;14.90;99.90
22738;DHT22;11536;50.860;4.286;2022-10-16T03:16:24;14.90;99.90
22738;DHT22;11536;50.860;4.286;2022-10-16T03:18:50;14.90;99.90
22738;DHT22;11536;50.860;4.286;2022-10-16T03:21:16;14.90;99.90
22738;DHT22;11536;50.860;4.286;2022-10-16T03:23:42;14.90;99.90
22738;DHT22;11536;50.860;4.286;2022-10-16T03:26:07;15.00;99.90
22738;DHT22;11536;50.860;4.286;2022-10-16T03:28:33;15.00;99.90
22738;DHT22;11536;50.860;4.286;2022-10-16T03:30:58;14.90;99.90
22738;DHT22;11536;50.860;4.286;2022-10-16T03:33:24;14.90;99.90
22738;DHT22;11536;50.860;4.286;2022-10-16T03:35:53;15.00;99.90
22738;DHT22;11536;50.860;4.286;2022-10-16T03:38:19;15.00;99.90
22738;DHT22;11536;50.860;4.286;2022-10-16T03:40:45;15.00;99.90
22738;DHT22;11536;50.860;4.286;2022-10-16T03:43:11;14.90;99.90
22738;DHT22;11536;50.860;4.286;2022-10-16T03:45:37;14.90;99.90
22738;DHT22;11536;50.860;4.286;2022-10-16T03:48:02;15.00;99.90
22738;DHT22;11536;50.860;4.286;2022-10-16T03:50:29;15.00;99.90
22738;DHT22;11536;50.860;4.286;2022-10-16T03:52:55;14.90;99.90
22738;DHT22;11536;50.860;4.286;2022-10-16T03:55:20;14.90;99.90
22738;DHT22;11536;50.860;4.286;2022-10-16T03:57:46;15.00;99.90
22738;DHT22;11536;50.860;4.286;2022-10-16T04:00:12;14.90;99.90
22738;DHT22;11536;50.860;4.286;2022-10-16T04:02:38;14.90;99.90
22738;DHT22;11536;50.860;4.286;2022-10-16T04:05:04;14.90;99.90
22738;DHT22;11536;50.860;4.286;2022-10-16T04:07:30;15.00;99.90
22738;DHT22;11536;50.860;4.286;2022-10-16T04:09:55;14.90;99.90
22738;DHT22;11536;50.860;4.286;2022-10-16T04:12:22;14.90;99.90
22738;DHT22;11536;50.860;4.286;2022-10-16T04:14:48;14.90;99.90
22738;DHT22;11536;50.860;4.286;2022-10-16T04:17:13;15.00;99.90
22738;DHT22;11536;50.860;4.286;2022-10-16T04:19:39;15.00;99.90
22738;DHT22;11536;50.860;4.286;2022-10-16T04:22:04;14.90;99.90
22738;DHT22;11536;50.860;4.286;2022-10-16T04:24:30;14.90;99.90
22738;DHT22;11536;50.860;4.286;2022-10-16T04:26:55;15.00;99.90
22738;DHT22;11536;50.860;4.286;2022-10-16T04:29:21;15.00;99.90
22738;DHT22;11536;50.860;4.286;2022-10-16T04:31:47;14.90;99.90
22738;DHT22;11536;50.860;4.286;2022-10-16T04:34:12;14.90;99.90
22738;DHT22;11536;50.860;4.286;2022-10-16T04:36:38;15.00;99.90
22738;DHT22;11536;50.860;4.286;2022-10-16T04:39:03;14.90;99.90
22738;DHT22;11536;50.860;4.286;2022-10-16T04:41:29;14.90;99.90
22738;DHT22;11536;50.860;4.286;2022-10-16T04:43:55;14.90;99.90
22738;DHT22;11536;50.860;4.286;2022-10-16T04:46:20;14.90;99.90
22738;DHT22;11536;50.860;4.286;2022-10-16T04:48:46;15.00;99.90
22738;DHT22;11536;50.860;4.286;2022-10-16T04:51:12;15.00;99.90
22738;DHT22;11536;50.860;4.286;2022-10-16T04:53:37;14.90;99.90
22738;DHT22;11536;50.860;4.286;2022-10-16T04:56:03;14.90;99.90
22738;DHT22;11536;50.860;4.286;2022-10-16T04:58:29;14.90;99.90
22738;DHT22;11536;50.860;4.286;2022-10-16T05:00:55;14.90;99.90
22738;DHT22;11536;50.860;4.286;2022-10-16T05:03:20;14.90;99.90
22738;DHT22;11536;50.860;4.286;2022-10-16T05:05:46;14.90;99.90
22738;DHT22;11536;50.860;4.286;2022-10-16T05:08:13;14.90;99.90
22738;DHT22;11536;50.860;4.286;2022-10-16T05:10:41;14.90;99.90
22738;DHT22;11536;50.860;4.286;2022-10-16T05:13:06;14.90;99.90
22738;DHT22;11536;50.860;4.286;2022-10-16T05:15:33;14.90;99.90
22738;DHT22;11536;50.860;4.286;2022-10-16T05:17:58;14.90;99.90
22738;DHT22;11536;50.860;4.286;2022-10-16T05:20:24;14.90;99.90
22738;DHT22;11536;50.860;4.286;2022-10-16T05:22:49;14.90;99.90
22738;DHT22;11536;50.860;4.286;2022-10-16T05:25:15;14.90;99.90
22738;DHT22;11536;50.860;4.286;2022-10-16T05:27:41;14.80;99.90
22738;DHT22;11536;50.860;4.286;2022-10-16T05:30:07;14.90;99.90
22738;DHT22;11536;50.860;4.286;2022-10-16T05:32:33;14.80;99.90
22738;DHT22;11536;50.860;4.286;2022-10-16T05:34:58;14.80;99.90
22738;DHT22;11536;50.860;4.286;2022-10-16T05:37:25;14.80;99.90
22738;DHT22;11536;50.860;4.286;2022-10-16T05:39:52;14.80;99.90
22738;DHT22;11536;50.860;4.286;2022-10-16T05:42:17;14.80;99.90
22738;DHT22;11536;50.860;4.286;2022-10-16T05:44:43;14.80;99.90
22738;DHT22;11536;50.860;4.286;2022-10-16T05:47:09;14.90;99.90
22738;DHT22;11536;50.860;4.286;2022-10-16T05:49:36;14.80;99.90
22738;DHT22;11536;50.860;4.286;2022-10-16T05:52:01;14.80;99.90
22738;DHT22;11536;50.860;4.286;2022-10-16T05:54:27;14.90;99.90
22738;DHT22;11536;50.860;4.286;2022-10-16T05:56:52;14.80;99.90
22738;DHT22;11536;50.860;4.286;2022-10-16T05:59:18;14.90;99.90
22738;DHT22;11536;50.860;4.286;2022-10-16T06:01:44;14.80;99.90
22738;DHT22;11536;50.860;4.286;2022-10-16T06:04:09;14.80;99.90
22738;DHT22;11536;50.860;4.286;2022-10-16T06:06:35;14.80;99.90
22738;DHT22;11536;50.860;4.286;2022-10-16T06:09:02;14.80;99.90
22738;DHT22;11536;50.860;4.286;2022-10-16T06:11:30;14.80;99.90
22738;DHT22;11536;50.860;4.286;2022-10-16T06:13:58;14.80;99.90
22738;DHT22;11536;50.860;4.286;2022-10-16T06:16:27;14.80;99.90
22738;DHT22;11536;50.860;4.286;2022-10-16T06:18:54;14.80;99.90
22738;DHT22;11536;50.860;4.286;2022-10-16T06:21:22;14.80;99.90
22738;DHT22;11536;50.860;4.286;2022-10-16T06:23:50;14.80;99.90
22738;DHT22;11536;50.860;4.286;2022-10-16T06:26:19;14.90;99.90
22738;DHT22;11536;50.860;4.286;2022-10-16T06:28:45;14.90;99.90
22738;DHT22;11536;50.860;4.286;2022-10-16T06:31:11;14.90;99.90
22738;DHT22;11536;50.860;4.286;2022-10-16T06:33:38;14.90;99.90
22738;DHT22;11536;50.860;4.286;2022-10-16T06:36:09;14.80;99.90
22738;DHT22;11536;50.860;4.286;2022-10-16T06:38:36;14.90;99.90
22738;DHT22;11536;50.860;4.286;2022-10-16T06:41:02;14.90;99.90
22738;DHT22;11536;50.860;4.286;2022-10-16T06:43:29;14.90;99.90
22738;DHT22;11536;50.860;4.286;2022-10-16T06:45:58;14.90;99.90
22738;DHT22;11536;50.860;4.286;2022-10-16T06:48:25;14.90;99.90
22738;DHT22;11536;50.860;4.286;2022-10-16T06:51:17;14.90;99.90
22738;DHT22;11536;50.860;4.286;2022-10-16T06:53:45;14.90;99.90
22738;DHT22;11536;50.860;4.286;2022-10-16T06:56:15;14.90;99.90
22738;DHT22;11536;50.860;4.286;2022-10-16T06:58:41;14.90;99.90
22738;DHT22;11536;50.860;4.286;2022-10-16T07:01:08;14.90;99.90
22738;DHT22;11536;50.860;4.286;2022-10-16T07:03:35;15.00;99.90
22738;DHT22;11536;50.860;4.286;2022-10-16T07:06:02;15.00;99.90
22738;DHT22;11536;50.860;4.286;2022-10-16T07:08:34;15.00;99.90
22738;DHT22;11536;50.860;4.286;2022-10-16T07:11:02;15.00;99.90
22738;DHT22;11536;50.860;4.286;2022-10-16T07:13:28;15.10;99.90
22738;DHT22;11536;50.860;4.286;2022-10-16T07:15:54;15.00;99.90
22738;DHT22;11536;50.860;4.286;2022-10-16T07:18:20;15.00;99.90
22738;DHT22;11536;50.860;4.286;2022-10-16T07:20:45;15.10;99.90
22738;DHT22;11536;50.860;4.286;2022-10-16T07:23:11;15.10;99.90
22738;DHT22;11536;50.860;4.286;2022-10-16T07:25:36;15.10;99.90
22738;DHT22;11536;50.860;4.286;2022-10-16T07:28:02;15.10;99.90
22738;DHT22;11536;50.860;4.286;2022-10-16T07:30:28;15.10;99.90
22738;DHT22;11536;50.860;4.286;2022-10-16T07:32:53;15.20;99.90
22738;DHT22;11536;50.860;4.286;2022-10-16T07:35:19;15.20;99.90
22738;DHT22;11536;50.860;4.286;2022-10-16T07:37:45;15.30;99.90
22738;DHT22;11536;50.860;4.286;2022-10-16T07:40:11;15.20;99.90
22738;DHT22;11536;50.860;4.286;2022-10-16T07:42:37;15.30;99.90
22738;DHT22;11536;50.860;4.286;2022-10-16T07:45:03;15.30;99.90
22738;DHT22;11536;50.860;4.286;2022-10-16T07:47:29;15.40;99.90
22738;DHT22;11536;50.860;4.286;2022-10-16T07:49:56;15.40;99.90
22738;DHT22;11536;50.860;4.286;2022-10-16T07:52:22;15.40;99.90
22738;DHT22;11536;50.860;4.286;2022-10-16T07:54:48;15.50;99.90
22738;DHT22;11536;50.860;4.286;2022-10-16T07:57:13;15.50;99.90
22738;DHT22;11536;50.860;4.286;2022-10-16T07:59:54;15.50;99.90
22738;DHT22;11536;50.860;4.286;2022-10-16T08:02:20;15.60;99.90
22738;DHT22;11536;50.860;4.286;2022-10-16T08:04:46;15.60;99.90
22738;DHT22;11536;50.860;4.286;2022-10-16T08:07:12;15.60;99.90
22738;DHT22;11536;50.860;4.286;2022-10-16T08:09:38;15.60;99.90
22738;DHT22;11536;50.860;4.286;2022-10-16T08:12:04;15.70;99.90
22738;DHT22;11536;50.860;4.286;2022-10-16T08:14:30;15.70;99.90
22738;DHT22;11536;50.860;4.286;2022-10-16T08:16:56;15.70;99.90
22738;DHT22;11536;50.860;4.286;2022-10-16T08:19:21;15.80;99.90
22738;DHT22;11536;50.860;4.286;2022-10-16T08:21:47;15.80;99.90
22738;DHT22;11536;50.860;4.286;2022-10-16T08:24:13;15.80;99.90
22738;DHT22;11536;50.860;4.286;2022-10-16T08:26:38;15.80;99.90
22738;DHT22;11536;50.860;4.286;2022-10-16T08:29:04;15.90;99.90
22738;DHT22;11536;50.860;4.286;2022-10-16T08:31:30;15.90;99.90
22738;DHT22;11536;50.860;4.286;2022-10-16T08:33:56;15.90;99.90
22738;DHT22;11536;50.860;4.286;2022-10-16T08:36:21;16.00;99.90
22738;DHT22;11536;50.860;4.286;2022-10-16T08:38:48;16.00;99.90
22738;DHT22;11536;50.860;4.286;2022-10-16T08:41:20;16.00;99.90
22738;DHT22;11536;50.860;4.286;2022-10-16T08:46:42;16.10;99.90
22738;DHT22;11536;50.860;4.286;2022-10-16T08:49:12;16.10;99.90
22738;DHT22;11536;50.860;4.286;2022-10-16T08:51:41;16.20;99.90
22738;DHT22;11536;50.860;4.286;2022-10-16T08:54:29;16.20;99.90
22738;DHT22;11536;50.860;4.286;2022-10-16T08:56:57;16.40;99.90
22738;DHT22;11536;50.860;4.286;2022-10-16T08:59:27;16.20;99.90
22738;DHT22;11536;50.860;4.286;2022-10-16T09:01:55;16.30;99.90
22738;DHT22;11536;50.860;4.286;2022-10-16T09:07:15;16.40;99.90
22738;DHT22;11536;50.860;4.286;2022-10-16T09:12:37;16.40;99.90
22738;DHT22;11536;50.860;4.286;2022-10-16T09:17:56;16.60;99.90
22738;DHT22;11536;50.860;4.286;2022-10-16T09:20:52;16.60;99.90
22738;DHT22;11536;50.860;4.286;2022-10-16T09:23:26;16.60;99.90
22738;DHT22;11536;50.860;4.286;2022-10-16T09:25:53;16.60;99.90
22738;DHT22;11536;50.860;4.286;2022-10-16T09:28:19;16.70;99.90
22738;DHT22;11536;50.860;4.286;2022-10-16T09:30:46;16.70;99.90
22738;DHT22;11536;50.860;4.286;2022-10-16T09:33:14;16.80;99.90
22738;DHT22;11536;50.860;4.286;2022-10-16T09:35:46;16.80;99.90
22738;DHT22;11536;50.860;4.286;2022-10-16T09:38:24;16.90;99.90
22738;DHT22;11536;50.860;4.286;2022-10-16T09:40:50;16.90;99.90
22738;DHT22;11536;50.860;4.286;2022-10-16T09:43:24;16.90;99.90
22738;DHT22;11536;50.860;4.286;2022-10-16T09:46:02;16.90;99.90
22738;DHT22;11536;50.860;4.286;2022-10-16T09:48:37;17.00;99.90
22738;DHT22;11536;50.860;4.286;2022-10-16T09:51:13;17.10;99.90
22738;DHT22;11536;50.860;4.286;2022-10-16T09:53:45;17.10;99.90
22738;DHT22;11536;50.860;4.286;2022-10-16T09:56:24;17.10;99.90
22738;DHT22;11536;50.860;4.286;2022-10-16T09:58:56;17.10;99.90
22738;DHT22;11536;50.860;4.286;2022-10-16T10:01:44;17.10;99.90
22738;DHT22;11536;50.860;4.286;2022-10-16T10:04:10;17.10;99.90
22738;DHT22;11536;50.860;4.286;2022-10-16T10:07:05;17.10;99.90
22738;DHT22;11536;50.860;4.286;2022-10-16T10:09:37;17.10;99.90
22738;DHT22;11536;50.860;4.286;2022-10-16T10:12:05;17.10;99.90
22738;DHT22;11536;50.860;4.286;2022-10-16T10:14:35;17.20;99.90
22738;DHT22;11536;50.860;4.286;2022-10-16T10:19:55;17.20;99.90
22738;DHT22;11536;50.860;4.286;2022-10-16T10:22:31;17.30;99.90
22738;DHT22;11536;50.860;4.286;2022-10-16T10:30:27;17.50;99.90
22738;DHT22;11536;50.860;4.286;2022-10-16T10:35:56;17.60;99.90
22738;DHT22;11536;50.860;4.286;2022-10-16T10:46:56;17.80;99.90
22738;DHT22;11536;50.860;4.286;2022-10-16T10:49:37;17.80;99.90
22738;DHT22;11536;50.860;4.286;2022-10-16T10:52:34;17.90;99.90
22738;DHT22;11536;50.860;4.286;2022-10-16T11:04:16;17.90;99.90
22738;DHT22;11536;50.860;4.286;2022-10-16T11:06:17;18.00;99.90
22738;DHT22;11536;50.860;4.286;2022-10-16T11:08:51;18.10;99.90
22738;DHT22;11536;50.860;4.286;2022-10-16T11:11:20;18.20;99.90
22738;DHT22;11536;50.860;4.286;2022-10-16T11:13:55;18.20;99.90
22738;DHT22;11536;50.860;4.286;2022-10-16T11:16:32;18.20;99.90
22738;DHT22;11536;50.860;4.286;2022-10-16T11:25:13;18.30;99.90
22738;DHT22;11536;50.860;4.286;2022-10-16T11:30:24;18.40;99.90
22738;DHT22;11536;50.860;4.286;2022-10-16T11:35:51;18.40;99.90
22738;DHT22;11536;50.860;4.286;2022-10-16T11:41:27;18.50;99.90
22738;DHT22;11536;50.860;4.286;2022-10-16T11:44:18;18.40;99.90
22738;DHT22;11536;50.860;4.286;2022-10-16T11:47:05;18.50;99.90
22738;DHT22;11536;50.860;4.286;2022-10-16T11:49:36;18.60;99.90
22738;DHT22;11536;50.860;4.286;2022-10-16T11:52:16;18.60;99.90
22738;DHT22;11536;50.860;4.286;2022-10-16T11:54:52;18.70;99.90
22738;DHT22;11536;50.860;4.286;2022-10-16T11:57:26;18.70;99.90
22738;DHT22;11536;50.860;4.286;2022-10-16T11:59:57;18.70;99.90
22738;DHT22;11536;50.860;4.286;2022-10-16T12:08:13;18.70;99.90
22738;DHT22;11536;50.860;4.286;2022-10-16T12:10:42;18.80;99.90
22738;DHT22;11536;50.860;4.286;2022-10-16T12:18:40;19.00;99.90
22738;DHT22;11536;50.860;4.286;2022-10-16T12:21:06;19.00;99.90
22738;DHT22;11536;50.860;4.286;2022-10-16T12:23:56;19.00;99.90
22738;DHT22;11536;50.860;4.286;2022-10-16T12:26:34;19.00;99.90
22738;DHT22;11536;50.860;4.286;2022-10-16T12:31:54;19.10;99.90
22738;DHT22;11536;50.860;4.286;2022-10-16T12:34:32;19.20;99.90
22738;DHT22;11536;50.860;4.286;2022-10-16T12:37:22;19.20;99.90
22738;DHT22;11536;50.860;4.286;2022-10-16T12:39:49;19.20;99.90
22738;DHT22;11536;50.860;4.286;2022-10-16T12:42:33;19.20;99.90
22738;DHT22;11536;50.860;4.286;2022-10-16T12:45:00;19.20;99.90
22738;DHT22;11536;50.860;4.286;2022-10-16T12:49:58;19.20;99.90
22738;DHT22;11536;50.860;4.286;2022-10-16T12:52:34;19.10;99.90
22738;DHT22;11536;50.860;4.286;2022-10-16T12:55:00;19.10;99.90
22738;DHT22;11536;50.860;4.286;2022-10-16T13:00:25;19.00;99.90
22738;DHT22;11536;50.860;4.286;2022-10-16T13:05:33;19.00;99.90
22738;DHT22;11536;50.860;4.286;2022-10-16T13:13:33;19.10;99.90
22738;DHT22;11536;50.860;4.286;2022-10-16T13:16:12;19.10;99.90
22738;DHT22;11536;50.860;4.286;2022-10-16T13:19:13;19.10;99.90
22738;DHT22;11536;50.860;4.286;2022-10-16T13:24:15;19.20;99.90
22738;DHT22;11536;50.860;4.286;2022-10-16T13:26:50;19.20;99.90
22738;DHT22;11536;50.860;4.286;2022-10-16T13:29:19;19.20;99.90
22738;DHT22;11536;50.860;4.286;2022-10-16T13:31:45;19.20;99.90
22738;DHT22;11536;50.860;4.286;2022-10-16T13:34:16;19.20;99.90
22738;DHT22;11536;50.860;4.286;2022-10-16T13:36:48;19.20;99.90
22738;DHT22;11536;50.860;4.286;2022-10-16T13:39:26;19.20;99.90
22738;DHT22;11536;50.860;4.286;2022-10-16T13:42:02;19.20;99.90
22738;DHT22;11536;50.860;4.286;2022-10-16T13:44:31;19.20;99.90
22738;DHT22;11536;50.860;4.286;2022-10-16T13:47:00;19.20;99.90
22738;DHT22;11536;50.860;4.286;2022-10-16T13:49:26;19.20;99.90
22738;DHT22;11536;50.860;4.286;2022-10-16T13:51:56;19.20;99.90
22738;DHT22;11536;50.860;4.286;2022-10-16T13:54:23;19.20;99.90
22738;DHT22;11536;50.860;4.286;2022-10-16T13:56:49;19.20;99.90
22738;DHT22;11536;50.860;4.286;2022-10-16T13:59:35;19.20;99.90
22738;DHT22;11536;50.860;4.286;2022-10-16T14:02:08;19.20;99.90
22738;DHT22;11536;50.860;4.286;2022-10-16T14:04:38;19.20;99.90
22738;DHT22;11536;50.860;4.286;2022-10-16T14:07:18;19.20;99.90
22738;DHT22;11536;50.860;4.286;2022-10-16T14:09:49;19.20;99.90
22738;DHT22;11536;50.860;4.286;2022-10-16T14:12:16;19.20;99.90
22738;DHT22;11536;50.860;4.286;2022-10-16T14:14:44;19.20;99.90
22738;DHT22;11536;50.860;4.286;2022-10-16T14:17:31;19.20;99.90
22738;DHT22;11536;50.860;4.286;2022-10-16T14:19:59;19.20;99.90
22738;DHT22;11536;50.860;4.286;2022-10-16T14:22:35;19.20;99.90
22738;DHT22;11536;50.860;4.286;2022-10-16T14:25:02;19.20;99.90
22738;DHT22;11536;50.860;4.286;2022-10-16T14:27:38;19.20;99.90
22738;DHT22;11536;50.860;4.286;2022-10-16T14:30:19;19.20;99.90
22738;DHT22;11536;50.860;4.286;2022-10-16T14:33:06;19.20;99.90
22738;DHT22;11536;50.860;4.286;2022-10-16T14:35:33;19.20;99.90
22738;DHT22;11536;50.860;4.286;2022-10-16T14:38:01;19.20;99.90
22738;DHT22;11536;50.860;4.286;2022-10-16T14:40:32;19.20;99.90
22738;DHT22;11536;50.860;4.286;2022-10-16T14:42:59;19.20;99.90
22738;DHT22;11536;50.860;4.286;2022-10-16T14:45:29;19.20;99.90
22738;DHT22;11536;50.860;4.286;2022-10-16T14:47:58;19.20;99.90
22738;DHT22;11536;50.860;4.286;2022-10-16T14:50:24;19.20;99.90
22738;DHT22;11536;50.860;4.286;2022-10-16T14:52:50;19.20;99.90
22738;DHT22;11536;50.860;4.286;2022-10-16T14:55:16;19.20;99.90
22738;DHT22;11536;50.860;4.286;2022-10-16T14:57:43;19.20;99.90
22738;DHT22;11536;50.860;4.286;2022-10-16T15:00:16;19.30;99.90
22738;DHT22;11536;50.860;4.286;2022-10-16T15:02:43;19.30;99.90
22738;DHT22;11536;50.860;4.286;2022-10-16T15:05:17;19.30;99.90
22738;DHT22;11536;50.860;4.286;2022-10-16T15:07:43;19.20;99.90
22738;DHT22;11536;50.860;4.286;2022-10-16T15:10:09;19.20;99.90
22738;DHT22;11536;50.860;4.286;2022-10-16T15:12:35;19.20;99.90
22738;DHT22;11536;50.860;4.286;2022-10-16T15:15:01;19.20;99.90
22738;DHT22;11536;50.860;4.286;2022-10-16T15:17:27;19.20;99.90
22738;DHT22;11536;50.860;4.286;2022-10-16T15:19:52;19.20;99.90
22738;DHT22;11536;50.860;4.286;2022-10-16T15:22:18;19.20;99.90
22738;DHT22;11536;50.860;4.286;2022-10-16T15:24:44;19.20;99.90
22738;DHT22;11536;50.860;4.286;2022-10-16T15:27:09;19.20;99.90
22738;DHT22;11536;50.860;4.286;2022-10-16T15:29:35;19.10;99.90
22738;DHT22;11536;50.860;4.286;2022-10-16T15:32:01;19.10;99.90
22738;DHT22;11536;50.860;4.286;2022-10-16T15:34:26;19.10;99.90
22738;DHT22;11536;50.860;4.286;2022-10-16T15:36:52;19.10;99.90
22738;DHT22;11536;50.860;4.286;2022-10-16T15:39:19;19.10;99.90
22738;DHT22;11536;50.860;4.286;2022-10-16T15:41:46;19.10;99.90
22738;DHT22;11536;50.860;4.286;2022-10-16T15:44:17;19.10;99.90
22738;DHT22;11536;50.860;4.286;2022-10-16T15:46:42;19.10;99.90
22738;DHT22;11536;50.860;4.286;2022-10-16T15:49:08;19.10;99.90
22738;DHT22;11536;50.860;4.286;2022-10-16T15:51:38;19.00;99.90
22738;DHT22;11536;50.860;4.286;2022-10-16T15:54:04;19.00;99.90
22738;DHT22;11536;50.860;4.286;2022-10-16T15:56:30;19.00;99.90
22738;DHT22;11536;50.860;4.286;2022-10-16T15:58:59;19.00;99.90
22738;DHT22;11536;50.860;4.286;2022-10-16T16:01:24;19.00;99.90
22738;DHT22;11536;50.860;4.286;2022-10-16T16:03:54;19.00;99.90
22738;DHT22;11536;50.860;4.286;2022-10-16T16:06:20;19.00;99.90
22738;DHT22;11536;50.860;4.286;2022-10-16T16:08:46;18.90;99.90
22738;DHT22;11536;50.860;4.286;2022-10-16T16:11:14;18.90;99.90
22738;DHT22;11536;50.860;4.286;2022-10-16T16:13:40;18.90;99.90
22738;DHT22;11536;50.860;4.286;2022-10-16T16:16:13;18.90;99.90
22738;DHT22;11536;50.860;4.286;2022-10-16T16:18:40;18.90;99.90
22738;DHT22;11536;50.860;4.286;2022-10-16T16:21:06;18.90;99.90
22738;DHT22;11536;50.860;4.286;2022-10-16T16:23:35;18.90;99.90
22738;DHT22;11536;50.860;4.286;2022-10-16T16:26:05;18.90;99.90
22738;DHT22;11536;50.860;4.286;2022-10-16T16:28:34;18.90;99.90
22738;DHT22;11536;50.860;4.286;2022-10-16T16:31:03;18.90;99.90
22738;DHT22;11536;50.860;4.286;2022-10-16T16:33:30;18.90;99.90
22738;DHT22;11536;50.860;4.286;2022-10-16T16:36:01;18.80;99.90
22738;DHT22;11536;50.860;4.286;2022-10-16T16:38:31;18.80;99.90
22738;DHT22;11536;50.860;4.286;2022-10-16T16:40:57;18.80;99.90
22738;DHT22;11536;50.860;4.286;2022-10-16T16:43:24;18.80;99.90
22738;DHT22;11536;50.860;4.286;2022-10-16T16:45:50;18.80;99.90
22738;DHT22;11536;50.860;4.286;2022-10-16T16:48:16;18.70;99.90
22738;DHT22;11536;50.860;4.286;2022-10-16T16:50:41;18.80;99.90
22738;DHT22;11536;50.860;4.286;2022-10-16T16:53:07;18.80;99.90
22738;DHT22;11536;50.860;4.286;2022-10-16T16:55:33;18.80;99.90
22738;DHT22;11536;50.860;4.286;2022-10-16T16:57:58;18.70;99.90
22738;DHT22;11536;50.860;4.286;2022-10-16T17:00:24;18.70;99.90
22738;DHT22;11536;50.860;4.286;2022-10-16T17:02:50;18.70;99.90
22738;DHT22;11536;50.860;4.286;2022-10-16T17:05:17;18.70;99.90
22738;DHT22;11536;50.860;4.286;2022-10-16T17:07:42;18.70;99.90
22738;DHT22;11536;50.860;4.286;2022-10-16T17:10:08;18.60;99.90
22738;DHT22;11536;50.860;4.286;2022-10-16T17:12:34;18.70;99.90
22738;DHT22;11536;50.860;4.286;2022-10-16T17:15:00;18.60;99.90
22738;DHT22;11536;50.860;4.286;2022-10-16T17:17:26;18.60;99.90
22738;DHT22;11536;50.860;4.286;2022-10-16T17:19:52;18.50;99.90
22738;DHT22;11536;50.860;4.286;2022-10-16T17:22:18;18.50;99.90